Unai, Brazil
Current Conditions -  °F | °C
As of 1:00 PM on Tuesday 21 Oct 2014 (Local Time) from SBBR Reporting Station
Few Clouds Few Clouds  
Wind Chill: 86°   Ceiling: Unl
Heat Index: 86°   Visibility: 6mi
Dew Point: 55°   Wind: 14mph
Humidity: 35%   Direction: 130°SE
Pressure: 30.06"   Gusts: NA
Location:  16.36°S, 46.9°W
Report Text: SBBR 211500Z 13012KT 9999 FEW040 30/13 Q1018
Loading
Personal Weather Stations






























Interactive Weather Map
Tropical Storm Tracking
New forecast layout! Learn more

10-Day Weather Forecast

Advertisements
Track Severe Weather on mobile